Current Ellington METAR:

KEFD 262150Z 15017G22KT 10SM SCT025 BKN038 24/18 A2989


Current Ellington TAF:

TAF KEFD 262000Z 2620/2802 18012KT 9999 BKN035 QNH2992INS BECMG 2701/2702 16009KT 8000 BR BKN015 QNH2990INS BECMG 2702/2703 VRB06KT 8000 BR OVC003 QNH2990INS TX27/2622Z TN18/2703Z

The location could not be found.

Current Aircraft on Radar: